createdAt,value
2017-02-17T00:00:10.271Z,47.45
2017-02-17T00:01:09.901Z,47.34
2017-02-17T00:02:10.126Z,47.72
2017-02-17T00:03:10.359Z,47.53
2017-02-17T00:04:10.778Z,47.44
2017-02-17T00:05:10.349Z,47.34
2017-02-17T00:06:10.562Z,47.34
2017-02-17T00:07:10.471Z,47.44
2017-02-17T00:08:10.507Z,47.34
2017-02-17T00:09:10.527Z,47.53
2017-02-17T00:10:10.656Z,47.44
2017-02-17T00:11:10.190Z,47.44
2017-02-17T00:12:10.761Z,47.44
2017-02-17T00:13:11.090Z,47.24
2017-02-17T00:14:10.663Z,47.34
2017-02-17T00:15:11.216Z,47.44
2017-02-17T00:16:10.914Z,47.44
2017-02-17T00:17:10.809Z,47.53
2017-02-17T00:18:10.787Z,47.44
2017-02-17T00:19:10.799Z,47.53
2017-02-17T00:20:10.434Z,47.53
2017-02-17T00:21:11.311Z,47.72
2017-02-17T00:22:10.903Z,47.53
2017-02-17T00:23:10.915Z,47.63
2017-02-17T00:24:11.214Z,47.63
2017-02-17T00:25:11.349Z,47.53
2017-02-17T00:26:10.592Z,47.53
2017-02-17T00:27:11.005Z,47.72
2017-02-17T00:28:11.264Z,47.34
2017-02-17T00:29:11.078Z,47.72
2017-02-17T00:30:11.132Z,47.44
2017-02-17T00:31:11.121Z,47.34
2017-02-17T00:32:11.322Z,47.44
2017-02-17T00:33:11.611Z,47.24
2017-02-17T00:34:10.818Z,47.44
2017-02-17T00:35:11.243Z,47.53
2017-02-17T00:36:11.649Z,47.63
2017-02-17T00:37:10.906Z,47.34
2017-02-17T00:38:10.925Z,47.34
2017-02-17T00:39:11.703Z,47.44
2017-02-17T00:40:10.986Z,47.82
2017-02-17T00:41:11.434Z,47.34
2017-02-17T00:42:11.076Z,47.53
2017-02-17T00:43:11.080Z,47.44
2017-02-17T00:44:11.380Z,47.34
2017-02-17T00:45:11.560Z,47.53
2017-02-17T00:46:11.711Z,47.24
2017-02-17T00:47:11.677Z,47.34
2017-02-17T00:48:11.773Z,47.34
2017-02-17T00:49:12.057Z,47.72
2017-02-17T00:50:11.567Z,47.24
2017-02-17T00:51:12.181Z,47.63
2017-02-17T00:52:11.316Z,47.63
2017-02-17T00:53:11.734Z,47.22
2017-02-17T00:54:11.661Z,47.6
2017-02-17T00:55:12.028Z,47.72
2017-02-17T00:56:11.826Z,47.7
2017-02-17T00:57:11.438Z,47.6
2017-02-17T00:58:11.977Z,47.6
2017-02-17T00:59:12.153Z,47.6
2017-02-17T01:00:11.538Z,47.72
2017-02-17T01:01:11.942Z,47.53
2017-02-17T01:02:12.439Z,47.34
2017-02-17T01:03:11.818Z,47.51
2017-02-17T01:04:12.287Z,47.31
2017-02-17T01:05:12.070Z,47.53
2017-02-17T01:06:12.093Z,47.51
2017-02-17T01:07:11.724Z,47.8
2017-02-17T01:08:11.757Z,47.22
2017-02-17T01:09:12.064Z,47.41
2017-02-17T01:10:11.796Z,47.6
2017-02-17T01:11:11.827Z,47.31
2017-02-17T01:12:11.876Z,47.51
2017-02-17T01:13:12.712Z,47.6
2017-02-17T01:14:12.608Z,47.51
2017-02-17T01:15:11.948Z,47.41
2017-02-17T01:16:11.985Z,47.41
2017-02-17T01:17:12.686Z,47.31
2017-02-17T01:18:12.447Z,47.51
2017-02-17T01:19:12.704Z,47.31
2017-02-17T01:20:12.467Z,47.6
2017-02-17T01:21:12.782Z,47.7
2017-02-17T01:22:12.552Z,46.93
2017-02-17T01:23:12.159Z,47.22
2017-02-17T01:24:12.631Z,47.6
2017-02-17T01:25:12.889Z,47.03
2017-02-17T01:26:12.233Z,47.41
2017-02-17T01:27:12.665Z,47.12
2017-02-17T01:28:12.693Z,47.03
2017-02-17T01:29:12.454Z,47.22
2017-02-17T01:30:12.809Z,47.31
2017-02-17T01:31:12.549Z,47.22
2017-02-17T01:32:12.402Z,47.22
2017-02-17T01:33:12.821Z,47.22
2017-02-17T01:34:12.966Z,47.22
2017-02-17T01:35:13.062Z,47.41
2017-02-17T01:36:12.515Z,47.51
2017-02-17T01:37:12.538Z,47.12
2017-02-17T01:38:12.955Z,47.12
2017-02-17T01:39:13.233Z,47.03
2017-02-17T01:40:13.509Z,47.22
2017-02-17T01:41:13.407Z,47.12
2017-02-17T01:42:13.446Z,47.12
2017-02-17T01:43:13.284Z,47.03
2017-02-17T01:44:13.026Z,46.93
2017-02-17T01:45:13.155Z,46.73
2017-02-17T01:46:13.195Z,47.03
2017-02-17T01:47:12.817Z,47.12
2017-02-17T01:48:13.250Z,47.03
2017-02-17T01:49:13.626Z,47.03
2017-02-17T01:50:13.525Z,47.12
2017-02-17T01:51:13.324Z,47.03
2017-02-17T01:52:13.373Z,47.41
2017-02-17T01:53:13.552Z,47.12
2017-02-17T01:54:13.202Z,47.31
2017-02-17T01:55:13.788Z,47.31
2017-02-17T01:56:13.458Z,46.83
2017-02-17T01:57:13.479Z,47.31
2017-02-17T01:58:13.855Z,46.64
2017-02-17T01:59:13.137Z,46.93
2017-02-17T02:00:13.179Z,46.64
2017-02-17T02:01:13.592Z,46.73
2017-02-17T02:02:13.869Z,46.45
2017-02-17T02:03:13.652Z,46.73
2017-02-17T02:04:13.678Z,46.73
2017-02-17T02:05:13.309Z,46.55
2017-02-17T02:06:14.151Z,46.73
2017-02-17T02:07:13.761Z,46.93
2017-02-17T02:08:13.770Z,46.64
2017-02-17T02:09:13.814Z,46.64
2017-02-17T02:10:14.379Z,46.55
2017-02-17T02:11:14.339Z,46.64
2017-02-17T02:12:13.495Z,46.35
2017-02-17T02:13:13.941Z,46.35
2017-02-17T02:14:13.564Z,46.64
2017-02-17T02:15:13.848Z,46.45
2017-02-17T02:16:14.052Z,46.45
2017-02-17T02:17:14.326Z,46.35
2017-02-17T02:18:14.053Z,46.35
2017-02-17T02:19:14.084Z,46.35
2017-02-17T02:20:13.969Z,46.45
2017-02-17T02:21:14.518Z,46.45
2017-02-17T02:22:14.020Z,46.55
2017-02-17T02:23:14.192Z,46.55
2017-02-17T02:24:14.216Z,46.64
2017-02-17T02:25:14.109Z,46.55
2017-02-17T02:26:14.455Z,46.55
2017-02-17T02:27:14.606Z,46.35
2017-02-17T02:28:14.227Z,46.55
2017-02-17T02:29:14.566Z,46.35
2017-02-17T02:30:14.932Z,46.35
2017-02-17T02:31:14.518Z,46.25
2017-02-17T02:32:14.636Z,46.25
2017-02-17T02:33:14.089Z,46.25
2017-02-17T02:34:14.109Z,46.42
2017-02-17T02:35:15.079Z,46.35
2017-02-17T02:36:14.939Z,46.33
2017-02-17T02:37:14.178Z,46.45
2017-02-17T02:38:14.614Z,46.55
2017-02-17T02:39:14.634Z,46.62
2017-02-17T02:40:15.319Z,46.45
2017-02-17T02:41:14.908Z,46.42
2017-02-17T02:42:14.790Z,46.45
2017-02-17T02:43:14.348Z,46.55
2017-02-17T02:44:14.762Z,46.35
2017-02-17T02:45:15.086Z,46.64
2017-02-17T02:46:14.943Z,46.62
2017-02-17T02:47:15.123Z,46.64
2017-02-17T02:48:14.473Z,46.62
2017-02-17T02:49:14.892Z,46.64
2017-02-17T02:50:15.211Z,46.64
2017-02-17T02:51:15.239Z,46.71
2017-02-17T02:52:14.977Z,46.35
2017-02-17T02:53:15.342Z,46.81
2017-02-17T02:54:15.407Z,46.64
2017-02-17T02:55:15.087Z,46.45
2017-02-17T02:56:14.743Z,46.42
2017-02-17T02:57:15.487Z,46.42
2017-02-17T02:58:15.320Z,46.23
2017-02-17T02:59:14.765Z,46.25
2017-02-17T03:00:15.056Z,46.23
2017-02-17T03:01:15.219Z,46.23
2017-02-17T03:02:15.529Z,46.33
2017-02-17T03:03:15.661Z,46.42
2017-02-17T03:04:15.306Z,46.25
2017-02-17T03:05:15.477Z,46.14
2017-02-17T03:06:15.243Z,46.14
2017-02-17T03:07:15.395Z,46.52
2017-02-17T03:08:15.037Z,46.52
2017-02-17T03:09:15.435Z,46.45
2017-02-17T03:10:16.304Z,46.25
2017-02-17T03:11:15.957Z,45.84
2017-02-17T03:12:16.076Z,45.75
2017-02-17T03:13:15.155Z,45.84
2017-02-17T03:14:15.577Z,46.14
2017-02-17T03:15:16.403Z,46.04
2017-02-17T03:16:16.280Z,45.97
2017-02-17T03:17:16.022Z,46.06
2017-02-17T03:18:15.287Z,45.68
2017-02-17T03:19:15.716Z,46.14
2017-02-17T03:20:16.009Z,45.94
2017-02-17T03:21:16.167Z,45.84
2017-02-17T03:22:16.269Z,45.75
2017-02-17T03:23:15.614Z,45.94
2017-02-17T03:24:15.453Z,45.94
2017-02-17T03:25:16.125Z,45.75
2017-02-17T03:26:15.972Z,46.04
2017-02-17T03:27:16.428Z,45.94
2017-02-17T03:28:16.582Z,46.04
2017-02-17T03:29:15.976Z,46.14
2017-02-17T03:30:16.262Z,46.23
2017-02-17T03:31:16.075Z,46.14
2017-02-17T03:32:16.109Z,46.14
2017-02-17T03:33:15.695Z,46.23
2017-02-17T03:34:16.123Z,45.84
2017-02-17T03:35:16.551Z,45.94
2017-02-17T03:36:16.605Z,45.94
2017-02-17T03:37:16.189Z,46.04
2017-02-17T03:38:15.851Z,46.04
2017-02-17T03:39:16.247Z,45.84
2017-02-17T03:40:17.145Z,46.23
2017-02-17T03:41:16.611Z,46.14
2017-02-17T03:42:16.763Z,45.56
2017-02-17T03:43:15.967Z,45.65
2017-02-17T03:44:16.379Z,45.46
2017-02-17T03:45:16.770Z,45.46
2017-02-17T03:46:16.935Z,45.46
2017-02-17T03:47:16.793Z,45.56
2017-02-17T03:48:16.101Z,45.84
2017-02-17T03:49:16.128Z,45.65
2017-02-17T03:50:16.556Z,45.46
2017-02-17T03:51:17.083Z,45.84
2017-02-17T03:52:17.065Z,45.84
2017-02-17T03:53:17.112Z,45.75
2017-02-17T03:54:16.259Z,45.56
2017-02-17T03:55:16.691Z,45.75
2017-02-17T03:56:16.723Z,45.75
2017-02-17T03:57:16.340Z,45.75
2017-02-17T03:58:17.040Z,45.75
2017-02-17T03:59:17.041Z,45.75
2017-02-17T04:00:16.426Z,45.75
2017-02-17T04:01:17.089Z,45.65
2017-02-17T04:02:16.484Z,45.94
2017-02-17T04:03:17.416Z,45.65
2017-02-17T04:04:17.096Z,45.65
2017-02-17T04:05:16.948Z,45.75
2017-02-17T04:06:17.030Z,45.84
2017-02-17T04:07:17.321Z,45.94
2017-02-17T04:08:17.272Z,45.84
2017-02-17T04:09:16.754Z,45.94
2017-02-17T04:10:17.406Z,45.46
2017-02-17T04:11:17.433Z,45.56
2017-02-17T04:12:17.231Z,45.75
2017-02-17T04:13:16.780Z,46.04
2017-02-17T04:14:17.592Z,45.07
2017-02-17T04:15:16.843Z,45.46
2017-02-17T04:16:17.917Z,45.27
2017-02-17T04:17:17.488Z,45.36
2017-02-17T04:18:16.904Z,45.27
2017-02-17T04:19:16.938Z,45.17
2017-02-17T04:20:17.002Z,45.07
2017-02-17T04:21:17.632Z,44.98
2017-02-17T04:22:17.028Z,45.07
2017-02-17T04:23:17.448Z,45.07
2017-02-17T04:24:17.930Z,45.46
2017-02-17T04:25:17.320Z,45.46
2017-02-17T04:26:17.775Z,45.07
2017-02-17T04:27:17.551Z,45.46
2017-02-17T04:28:17.571Z,45.07
2017-02-17T04:29:17.624Z,45.07
2017-02-17T04:30:17.705Z,45.36
2017-02-17T04:31:18.041Z,45.36
2017-02-17T04:32:17.685Z,45.36
2017-02-17T04:33:17.715Z,45.27
2017-02-17T04:34:17.999Z,45.27
2017-02-17T04:35:17.766Z,45.27
2017-02-17T04:36:17.660Z,45.17
2017-02-17T04:37:17.416Z,45.17
2017-02-17T04:38:17.944Z,45.27
2017-02-17T04:39:17.695Z,45.17
2017-02-17T04:40:17.508Z,45.27
2017-02-17T04:41:18.170Z,45.17
2017-02-17T04:42:18.180Z,45.17
2017-02-17T04:43:17.978Z,45.17
2017-02-17T04:44:17.614Z,45.17
2017-02-17T04:45:17.641Z,44.98
2017-02-17T04:46:18.306Z,44.98
2017-02-17T04:47:18.143Z,44.98
2017-02-17T04:48:17.714Z,45.46
2017-02-17T04:49:18.139Z,45.36
2017-02-17T04:50:18.164Z,45.27
2017-02-17T04:51:18.448Z,45.17
2017-02-17T04:52:18.234Z,45.36
2017-02-17T04:53:17.856Z,45.17
2017-02-17T04:54:18.816Z,45.27
2017-02-17T04:55:18.017Z,45.17
2017-02-17T04:56:18.596Z,45.46
2017-02-17T04:57:18.364Z,45.46
2017-02-17T04:58:18.384Z,45.56
2017-02-17T04:59:18.475Z,45.46
2017-02-17T05:00:18.449Z,45.36
2017-02-17T05:01:19.005Z,45.36
2017-02-17T05:02:18.097Z,45.46
2017-02-17T05:03:18.736Z,45.36
2017-02-17T05:04:18.233Z,45.27
2017-02-17T05:05:18.187Z,45.17
2017-02-17T05:06:19.252Z,45.56
2017-02-17T05:07:18.806Z,45.17
2017-02-17T05:08:18.887Z,45.17
2017-02-17T05:09:18.862Z,45.17
2017-02-17T05:10:18.491Z,45.17
2017-02-17T05:11:18.995Z,45.27
2017-02-17T05:12:19.067Z,45.17
2017-02-17T05:13:18.988Z,45.17
2017-02-17T05:14:19.035Z,45.07
2017-02-17T05:15:18.448Z,45.17
2017-02-17T05:16:19.121Z,45.17
2017-02-17T05:17:19.301Z,45.27
2017-02-17T05:18:18.522Z,45.17
2017-02-17T05:19:18.548Z,45.17
2017-02-17T05:20:18.971Z,45.17
2017-02-17T05:21:19.225Z,45.07
2017-02-17T05:22:19.515Z,45.17
2017-02-17T05:23:19.422Z,45.27
2017-02-17T05:24:19.086Z,44.98
2017-02-17T05:25:19.105Z,44.79
2017-02-17T05:26:19.475Z,44.69
2017-02-17T05:27:19.690Z,44.69
2017-02-17T05:28:19.427Z,44.31
2017-02-17T05:29:18.833Z,44.4
2017-02-17T05:30:18.842Z,44.49
2017-02-17T05:31:19.127Z,44.69
2017-02-17T05:32:19.519Z,44.79
2017-02-17T05:33:19.321Z,44.69
2017-02-17T05:34:19.406Z,44.79
2017-02-17T05:35:19.812Z,44.79
2017-02-17T05:36:19.594Z,44.79
2017-02-17T05:37:19.431Z,44.79
2017-02-17T05:38:19.077Z,44.79
2017-02-17T05:39:19.105Z,44.9
2017-02-17T05:40:19.128Z,44.79
2017-02-17T05:41:20.078Z,44.71
2017-02-17T05:42:19.579Z,44.69
2017-02-17T05:43:19.209Z,44.49
2017-02-17T05:44:19.629Z,44.49
2017-02-17T05:45:19.250Z,44.49
2017-02-17T05:46:20.429Z,44.49
2017-02-17T05:47:19.695Z,44.13
2017-02-17T05:48:19.779Z,44.04
2017-02-17T05:49:19.924Z,44.21
2017-02-17T05:50:20.197Z,44.32
2017-02-17T05:51:20.069Z,44.23
2017-02-17T05:52:19.438Z,44.42
2017-02-17T05:53:19.905Z,44.13
2017-02-17T05:54:19.901Z,44.13
2017-02-17T05:55:19.525Z,44.32
2017-02-17T05:56:19.550Z,44.13
2017-02-17T05:57:20.212Z,44.23
2017-02-17T05:58:19.996Z,44.13
2017-02-17T05:59:20.189Z,44.52
2017-02-17T06:00:20.056Z,44.52
2017-02-17T06:01:20.075Z,44.42
2017-02-17T06:02:19.714Z,44.23
2017-02-17T06:03:20.249Z,44.32
2017-02-17T06:04:20.335Z,44.23
2017-02-17T06:05:20.200Z,44.52
2017-02-17T06:06:20.221Z,44.32
2017-02-17T06:07:20.235Z,44.32
2017-02-17T06:08:20.719Z,44.23
2017-02-17T06:09:20.330Z,44.13
2017-02-17T06:10:20.326Z,43.65
2017-02-17T06:11:20.374Z,43.85
2017-02-17T06:12:20.377Z,43.65
2017-02-17T06:13:20.207Z,43.96
2017-02-17T06:14:20.640Z,44.13
2017-02-17T06:15:21.010Z,44.15
2017-02-17T06:16:20.484Z,44.06
2017-02-17T06:17:20.565Z,44.04
2017-02-17T06:18:20.537Z,43.87
2017-02-17T06:19:20.600Z,43.67
2017-02-17T06:20:20.671Z,43.67
2017-02-17T06:21:20.624Z,43.96
2017-02-17T06:22:20.761Z,43.87
2017-02-17T06:23:20.813Z,44.15
2017-02-17T06:24:20.322Z,44.06
2017-02-17T06:25:20.740Z,43.87
2017-02-17T06:26:20.780Z,44.15
2017-02-17T06:27:21.249Z,43.48
2017-02-17T06:28:20.817Z,43.77
2017-02-17T06:29:20.842Z,43.77
2017-02-17T06:30:20.876Z,43.87
2017-02-17T06:31:20.891Z,43.77
2017-02-17T06:32:21.451Z,43.67
2017-02-17T06:33:21.575Z,43.48
2017-02-17T06:34:21.188Z,43.58
2017-02-17T06:35:20.599Z,43.58
2017-02-17T06:36:20.650Z,43.58
2017-02-17T06:37:21.063Z,43.77
2017-02-17T06:38:21.709Z,43.58
2017-02-17T06:39:21.158Z,43.87
2017-02-17T06:40:21.143Z,43.67
2017-02-17T06:41:21.179Z,43.87
2017-02-17T06:42:20.787Z,43.77
2017-02-17T06:43:21.636Z,43.29
2017-02-17T06:44:21.733Z,43.48
2017-02-17T06:45:21.384Z,43.38
2017-02-17T06:46:20.918Z,43.29
2017-02-17T06:47:21.327Z,43.29
2017-02-17T06:48:21.357Z,43.29
2017-02-17T06:49:21.713Z,43.38
2017-02-17T06:50:21.874Z,43.48
2017-02-17T06:51:21.044Z,43.38
2017-02-17T06:52:21.463Z,43.48
2017-02-17T06:53:21.495Z,43.29
2017-02-17T06:54:21.637Z,43.29
2017-02-17T06:55:21.966Z,43
2017-02-17T06:56:22.039Z,43
2017-02-17T06:57:21.222Z,42.71
2017-02-17T06:58:21.627Z,43.58
2017-02-17T06:59:21.779Z,42.9
2017-02-17T07:00:22.261Z,43.48
2017-02-17T07:01:22.159Z,42.71
2017-02-17T07:02:21.742Z,43
2017-02-17T07:03:21.775Z,42.8
2017-02-17T07:04:21.799Z,43.48
2017-02-17T07:05:21.924Z,42.71
2017-02-17T07:06:22.101Z,42.71
2017-02-17T07:07:22.116Z,43.48
2017-02-17T07:08:21.903Z,43
2017-02-17T07:09:21.544Z,42.61
2017-02-17T07:10:22.254Z,42.71
2017-02-17T07:11:21.986Z,43.19
2017-02-17T07:12:22.770Z,42.71
2017-02-17T07:13:21.650Z,42.71
2017-02-17T07:14:22.072Z,42.9
2017-02-17T07:15:22.094Z,43.1
2017-02-17T07:16:22.651Z,43
2017-02-17T07:17:22.891Z,43.19
2017-02-17T07:18:22.192Z,43
2017-02-17T07:19:21.817Z,43.1
2017-02-17T07:20:22.233Z,42.9
2017-02-17T07:21:22.762Z,42.9
2017-02-17T07:22:22.891Z,42.9
2017-02-17T07:23:22.870Z,43.29
2017-02-17T07:24:22.338Z,43.1
2017-02-17T07:25:22.502Z,43.29
2017-02-17T07:26:22.519Z,43.38
2017-02-17T07:27:22.674Z,43.48
2017-02-17T07:28:22.905Z,43.1
2017-02-17T07:29:22.485Z,43.19
2017-02-17T07:30:22.504Z,43.48
2017-02-17T07:31:22.538Z,43.29
2017-02-17T07:32:23.094Z,43.29
2017-02-17T07:33:22.931Z,43.29
2017-02-17T07:34:22.685Z,43.29
2017-02-17T07:35:22.638Z,43.48
2017-02-17T07:36:22.679Z,43.38
2017-02-17T07:37:22.712Z,43.38
2017-02-17T07:38:23.101Z,43.29
2017-02-17T07:39:22.592Z,43.48
2017-02-17T07:40:22.781Z,43.38
2017-02-17T07:41:22.814Z,43.77
2017-02-17T07:42:22.607Z,43.38
2017-02-17T07:43:22.475Z,43.58
2017-02-17T07:44:22.896Z,43.67
2017-02-17T07:45:22.926Z,43.67
2017-02-17T07:46:22.953Z,43.38
2017-02-17T07:47:23.018Z,43.77
2017-02-17T07:48:23.124Z,43.77
2017-02-17T07:49:22.635Z,43.77
2017-02-17T07:50:22.660Z,43.77
2017-02-17T07:51:22.694Z,43.77
2017-02-17T07:52:23.485Z,43.58
2017-02-17T07:53:23.161Z,43.67
2017-02-17T07:54:23.165Z,43.75
2017-02-17T07:55:22.796Z,43.77
2017-02-17T07:56:22.818Z,43.46
2017-02-17T07:57:23.647Z,43.58
2017-02-17T07:58:23.673Z,43.75
2017-02-17T07:59:23.308Z,43.75
2017-02-17T08:00:23.605Z,43.75
2017-02-17T08:01:23.156Z,43.55
2017-02-17T08:02:23.940Z,43.77
2017-02-17T08:03:23.538Z,43.37
2017-02-17T08:04:23.583Z,43.85
2017-02-17T08:05:23.469Z,43.85
2017-02-17T08:06:23.500Z,44.04
2017-02-17T08:07:23.517Z,43.85
2017-02-17T08:08:23.995Z,43.75
2017-02-17T08:09:23.493Z,43.94
2017-02-17T08:10:23.600Z,43.94
2017-02-17T08:11:23.620Z,44.13
2017-02-17T08:12:23.655Z,44.04
2017-02-17T08:13:24.103Z,44.04
2017-02-17T08:14:23.960Z,43.85
2017-02-17T08:15:23.523Z,44.04
2017-02-17T08:16:23.764Z,43.55
2017-02-17T08:17:23.790Z,43.85
2017-02-17T08:18:23.414Z,43.65
2017-02-17T08:19:24.325Z,43.65
2017-02-17T08:20:24.152Z,43.75
2017-02-17T08:21:23.901Z,43.85
2017-02-17T08:22:24.126Z,43.75
2017-02-17T08:23:23.773Z,43.85
2017-02-17T08:24:23.591Z,44.04
2017-02-17T08:25:24.002Z,44.04
2017-02-17T08:26:24.126Z,43.65
2017-02-17T08:27:24.221Z,43.75
2017-02-17T08:28:24.117Z,43.75
2017-02-17T08:29:24.311Z,43.85
2017-02-17T08:30:23.747Z,43.55
2017-02-17T08:31:24.186Z,43.75
2017-02-17T08:32:24.106Z,43.85
2017-02-17T08:33:24.622Z,43.75
2017-02-17T08:34:24.737Z,43.85
2017-02-17T08:35:24.278Z,43.85
2017-02-17T08:36:23.917Z,44.13
2017-02-17T08:37:23.940Z,43.94
2017-02-17T08:38:25.063Z,43.87
2017-02-17T08:39:24.984Z,43
2017-02-17T08:40:24.024Z,42.42
2017-02-17T08:41:24.047Z,42.25
2017-02-17T08:42:24.481Z,42.15
2017-02-17T08:43:24.742Z,41.57
2017-02-17T08:44:24.599Z,41.5
2017-02-17T08:45:24.242Z,41.6
2017-02-17T08:46:24.394Z,41.3
2017-02-17T08:47:24.892Z,41.4
2017-02-17T08:48:25.069Z,41.11
2017-02-17T08:49:24.886Z,41.3
2017-02-17T08:50:24.607Z,41.4
2017-02-17T08:51:24.707Z,41.5
2017-02-17T08:52:24.744Z,41.5
2017-02-17T08:53:24.616Z,41.2
2017-02-17T08:54:24.405Z,41.4
2017-02-17T08:55:25.124Z,41.3
2017-02-17T08:56:25.249Z,41.67
2017-02-17T08:57:24.482Z,41.6
2017-02-17T08:58:24.757Z,41.96
2017-02-17T08:59:24.924Z,42.25
2017-02-17T09:00:25.078Z,42.25
2017-02-17T09:01:25.172Z,42.05
2017-02-17T09:02:24.616Z,41.77
2017-02-17T09:03:25.284Z,41.67
2017-02-17T09:04:25.061Z,42.05
2017-02-17T09:05:25.566Z,42.25
2017-02-17T09:06:25.060Z,42.15
2017-02-17T09:07:25.496Z,42.15
2017-02-17T09:08:25.420Z,42.25
2017-02-17T09:09:24.814Z,41.57
2017-02-17T09:10:25.217Z,41.77
2017-02-17T09:11:25.492Z,42.05
2017-02-17T09:12:25.708Z,42.54
2017-02-17T09:13:25.566Z,42.35
2017-02-17T09:14:25.350Z,42.15
2017-02-17T09:15:25.369Z,42.35
2017-02-17T09:16:25.717Z,42.25
2017-02-17T09:17:25.506Z,42.25
2017-02-17T09:18:26.286Z,42.25
2017-02-17T09:19:25.088Z,42.15
2017-02-17T09:20:25.500Z,42.25
2017-02-17T09:21:25.217Z,42.44
2017-02-17T09:22:25.675Z,42.25
2017-02-17T09:23:26.264Z,41.77
2017-02-17T09:24:25.225Z,41.77
2017-02-17T09:25:25.637Z,41.86
2017-02-17T09:26:25.286Z,41.77
2017-02-17T09:27:25.823Z,42.25
2017-02-17T09:28:25.849Z,42.05
2017-02-17T09:29:25.642Z,42.05
2017-02-17T09:30:25.797Z,41.96
2017-02-17T09:31:25.810Z,42.05
2017-02-17T09:32:25.443Z,42.35
2017-02-17T09:33:26.303Z,42.05
2017-02-17T09:34:26.197Z,42.05
2017-02-17T09:35:25.706Z,41.86
2017-02-17T09:36:26.542Z,42.15
2017-02-17T09:37:26.259Z,42.25
2017-02-17T09:38:26.010Z,42.44
2017-02-17T09:39:26.065Z,42.52
2017-02-17T09:40:25.906Z,42.42
2017-02-17T09:41:26.736Z,42.13
2017-02-17T09:42:26.410Z,42.52
2017-02-17T09:43:25.761Z,42.13
2017-02-17T09:44:26.171Z,42.42
2017-02-17T09:45:25.858Z,42.42
2017-02-17T09:46:26.245Z,42.52
2017-02-17T09:47:26.165Z,42.71
2017-02-17T09:48:26.250Z,42.32
2017-02-17T09:49:25.923Z,42.32
2017-02-17T09:50:25.945Z,42.61
2017-02-17T09:51:26.360Z,42.52
2017-02-17T09:52:26.317Z,43.29
2017-02-17T09:53:26.875Z,43.19
2017-02-17T09:54:26.058Z,43.29
2017-02-17T09:55:26.076Z,43
2017-02-17T09:56:26.508Z,42.71
2017-02-17T09:57:27.028Z,43.29
2017-02-17T09:58:27.007Z,43.1
2017-02-17T09:59:27.066Z,43.19
2017-02-17T10:00:26.216Z,43.19
2017-02-17T10:01:26.247Z,43.19
2017-02-17T10:02:26.336Z,43.27
2017-02-17T10:03:27.170Z,43.19
2017-02-17T10:04:26.580Z,43.1
2017-02-17T10:05:26.756Z,43.38
2017-02-17T10:06:26.778Z,43.29
2017-02-17T10:07:26.396Z,43.29
2017-02-17T10:08:27.450Z,42.52
2017-02-17T10:09:27.697Z,42.61
2017-02-17T10:10:27.082Z,43.29
2017-02-17T10:11:26.529Z,42.52
2017-02-17T10:12:26.952Z,42.52
2017-02-17T10:13:27.349Z,42.71
2017-02-17T10:14:27.814Z,42.61
2017-02-17T10:15:27.202Z,42.71
2017-02-17T10:16:27.060Z,42.61
2017-02-17T10:17:27.069Z,42.52
2017-02-17T10:18:27.095Z,42.71
2017-02-17T10:19:27.594Z,42.61
2017-02-17T10:20:27.340Z,42.52
2017-02-17T10:21:27.412Z,42.52
2017-02-17T10:22:26.816Z,42.52
2017-02-17T10:23:26.846Z,42.42
2017-02-17T10:24:27.221Z,42.03
2017-02-17T10:25:27.097Z,42.13
2017-02-17T10:26:26.979Z,42.03
2017-02-17T10:27:27.363Z,42.42
2017-02-17T10:28:27.393Z,42.23
2017-02-17T10:29:27.665Z,42.23
2017-02-17T10:30:28.010Z,42.13
2017-02-17T10:31:27.528Z,42.42
2017-02-17T10:32:27.487Z,42.13
2017-02-17T10:33:27.517Z,42.61
2017-02-17T10:34:27.802Z,42.32
2017-02-17T10:35:27.805Z,42.23
2017-02-17T10:36:27.612Z,42.42
2017-02-17T10:37:27.970Z,42.42
2017-02-17T10:38:27.657Z,42.42
2017-02-17T10:39:27.536Z,42.61
2017-02-17T10:40:27.352Z,42.42
2017-02-17T10:41:27.785Z,42.32
2017-02-17T10:42:27.774Z,42.52
2017-02-17T10:43:28.157Z,42.52
2017-02-17T10:44:27.673Z,42.42
2017-02-17T10:45:27.731Z,42.32
2017-02-17T10:46:27.862Z,42.52
2017-02-17T10:47:28.414Z,42.32
2017-02-17T10:48:28.304Z,42.32
2017-02-17T10:49:28.241Z,42.32
2017-02-17T10:50:27.982Z,42.23
2017-02-17T10:51:27.615Z,42.52
2017-02-17T10:52:28.112Z,42.61
2017-02-17T10:53:27.659Z,42.42
2017-02-17T10:54:27.690Z,42.32
2017-02-17T10:55:28.388Z,42.13
2017-02-17T10:56:28.021Z,42.32
2017-02-17T10:57:28.190Z,42.32
2017-02-17T10:58:28.196Z,42.13
2017-02-17T10:59:27.827Z,42.23
2017-02-17T11:00:28.713Z,42.13
2017-02-17T11:01:28.050Z,42.23
2017-02-17T11:02:28.493Z,42.23
2017-02-17T11:03:28.852Z,42.23
2017-02-17T11:04:27.966Z,42.23
2017-02-17T11:05:28.272Z,42.52
2017-02-17T11:06:28.612Z,42.13
2017-02-17T11:07:28.800Z,41.75
2017-02-17T11:08:28.470Z,40.97
2017-02-17T11:09:28.489Z,38.95
2017-02-17T11:10:28.130Z,37.98
2017-02-17T11:11:29.156Z,37.7
2017-02-17T11:12:28.928Z,37.41
2017-02-17T11:13:28.608Z,37.41
2017-02-17T11:14:28.237Z,37.12
2017-02-17T11:15:28.769Z,36.52
2017-02-17T11:16:28.947Z,37.01
2017-02-17T11:17:29.029Z,37.29
2017-02-17T11:18:30.015Z,37.29
2017-02-17T11:19:28.987Z,37.01
2017-02-17T11:20:29.273Z,37.01
2017-02-17T11:21:29.117Z,37.39
2017-02-17T11:22:28.865Z,37.01
2017-02-17T11:23:28.511Z,36.33
2017-02-17T11:24:28.912Z,36.33
2017-02-17T11:25:28.933Z,36.23
2017-02-17T11:26:28.566Z,36.43
2017-02-17T11:27:29.028Z,36.91
2017-02-17T11:28:29.094Z,37.1
2017-02-17T11:29:29.279Z,37.48
2017-02-17T11:30:28.709Z,37.85
2017-02-17T11:31:29.093Z,37.68
2017-02-17T11:32:29.147Z,37.96
2017-02-17T11:33:29.655Z,37.87
2017-02-17T11:34:29.704Z,38.06
2017-02-17T11:35:28.812Z,37.96
2017-02-17T11:36:29.232Z,37.87
2017-02-17T11:37:28.870Z,37.96
2017-02-17T11:38:29.479Z,38.06
2017-02-17T11:39:29.668Z,37.77
2017-02-17T11:40:28.994Z,38.16
2017-02-17T11:41:29.778Z,37.87
2017-02-17T11:42:29.592Z,37.96
2017-02-17T11:43:29.430Z,38.35
2017-02-17T11:44:29.080Z,38.06
2017-02-17T11:45:29.486Z,37.96
2017-02-17T11:46:29.460Z,38.35
2017-02-17T11:47:29.557Z,38.35
2017-02-17T11:48:29.178Z,38.35
2017-02-17T11:49:30.103Z,38.35
2017-02-17T11:50:30.017Z,38.45
2017-02-17T11:51:29.658Z,38.35
2017-02-17T11:52:29.847Z,38.35
2017-02-17T11:53:29.896Z,38.93
2017-02-17T11:54:29.618Z,38.74
2017-02-17T11:55:29.770Z,38.93
2017-02-17T11:56:30.215Z,38.93
2017-02-17T11:57:29.771Z,38.64
2017-02-17T11:58:29.834Z,38.74
2017-02-17T11:59:29.908Z,38.74
2017-02-17T12:00:30.344Z,38.83
2017-02-17T12:01:30.119Z,38.66
2017-02-17T12:02:29.956Z,38.93
2017-02-17T12:03:30.234Z,38.83
2017-02-17T12:04:30.003Z,38.83
2017-02-17T12:05:29.911Z,38.46
2017-02-17T12:06:30.048Z,38.83
2017-02-17T12:07:30.339Z,38.54
2017-02-17T12:08:30.113Z,38.45
2017-02-17T12:09:30.109Z,39.31
2017-02-17T12:10:30.572Z,38.76
2017-02-17T12:11:29.978Z,39.14
2017-02-17T12:12:29.839Z,38.74
2017-02-17T12:13:30.431Z,38.45
2017-02-17T12:14:30.275Z,38.74
2017-02-17T12:15:30.570Z,38.93
2017-02-17T12:16:30.485Z,38.93
2017-02-17T12:17:30.453Z,38.93
2017-02-17T12:18:30.575Z,38.74
2017-02-17T12:19:30.031Z,39.22
2017-02-17T12:20:30.986Z,39.41
2017-02-17T12:21:30.697Z,39.31
2017-02-17T12:22:30.499Z,39.41
2017-02-17T12:23:30.143Z,39.31
2017-02-17T12:24:30.552Z,39.31
2017-02-17T12:25:31.357Z,39.22
2017-02-17T12:26:31.156Z,39.31
2017-02-17T12:27:30.242Z,39.51
2017-02-17T12:28:30.666Z,39.31
2017-02-17T12:29:30.299Z,39.43
2017-02-17T12:30:31.227Z,39.12
2017-02-17T12:31:31.020Z,39.04
2017-02-17T12:32:31.180Z,39.31
2017-02-17T12:33:30.411Z,39.34
2017-02-17T12:34:30.831Z,39.43
2017-02-17T12:35:31.256Z,39.43
2017-02-17T12:36:31.049Z,39.24
2017-02-17T12:37:30.517Z,39.24
2017-02-17T12:38:30.941Z,39.43
2017-02-17T12:39:30.963Z,39.24
2017-02-17T12:40:30.599Z,39.04
2017-02-17T12:41:31.287Z,39.43
2017-02-17T12:42:31.043Z,39.31
2017-02-17T12:43:31.176Z,39.72
2017-02-17T12:44:30.710Z,39.62
2017-02-17T12:45:31.136Z,39.24
2017-02-17T12:46:31.163Z,39.24
2017-02-17T12:47:31.391Z,39.24
2017-02-17T12:48:31.223Z,39.53
2017-02-17T12:49:31.639Z,39.62
2017-02-17T12:50:30.879Z,39.04
2017-02-17T12:51:30.936Z,39.43
2017-02-17T12:52:31.642Z,39.62
2017-02-17T12:53:31.593Z,39.51
2017-02-17T12:54:31.080Z,39.24